sensor_id;sensor_type;location;lat;lon;timestamp;P1;durP1;ratioP1;P2;durP2;ratioP2
52974;SDS011;38839;45.186;5.720;2023-11-18T00:01:45;3.70;;;2.20;;
52974;SDS011;38839;45.186;5.720;2023-11-18T00:04:11;3.03;;;2.35;;
52974;SDS011;38839;45.186;5.720;2023-11-18T00:06:45;2.42;;;1.98;;
52974;SDS011;38839;45.186;5.720;2023-11-18T00:09:11;4.15;;;2.35;;
52974;SDS011;38839;45.186;5.720;2023-11-18T00:11:40;4.32;;;2.80;;
52974;SDS011;38839;45.186;5.720;2023-11-18T00:14:07;5.20;;;2.92;;
52974;SDS011;38839;45.186;5.720;2023-11-18T00:16:33;5.15;;;2.75;;
52974;SDS011;38839;45.186;5.720;2023-11-18T00:18:59;4.60;;;2.47;;
52974;SDS011;38839;45.186;5.720;2023-11-18T00:21:26;3.45;;;2.22;;
52974;SDS011;38839;45.186;5.720;2023-11-18T00:23:52;4.45;;;2.70;;
52974;SDS011;38839;45.186;5.720;2023-11-18T00:26:18;3.28;;;2.20;;
52974;SDS011;38839;45.186;5.720;2023-11-18T00:28:47;4.10;;;2.58;;
52974;SDS011;38839;45.186;5.720;2023-11-18T00:31:13;6.20;;;3.00;;
52974;SDS011;38839;45.186;5.720;2023-11-18T00:33:39;3.78;;;2.63;;
52974;SDS011;38839;45.186;5.720;2023-11-18T00:36:08;3.75;;;2.80;;
52974;SDS011;38839;45.186;5.720;2023-11-18T00:38:34;5.00;;;2.70;;
52974;SDS011;38839;45.186;5.720;2023-11-18T00:40:59;3.45;;;2.63;;
52974;SDS011;38839;45.186;5.720;2023-11-18T00:43:25;5.68;;;3.20;;
52974;SDS011;38839;45.186;5.720;2023-11-18T00:45:50;4.90;;;2.80;;
52974;SDS011;38839;45.186;5.720;2023-11-18T00:48:16;4.07;;;2.85;;
52974;SDS011;38839;45.186;5.720;2023-11-18T00:50:42;9.45;;;3.72;;
52974;SDS011;38839;45.186;5.720;2023-11-18T00:53:07;4.60;;;3.35;;
52974;SDS011;38839;45.186;5.720;2023-11-18T00:55:32;4.30;;;2.92;;
52974;SDS011;38839;45.186;5.720;2023-11-18T00:57:58;4.05;;;2.88;;
52974;SDS011;38839;45.186;5.720;2023-11-18T01:00:23;4.20;;;3.25;;
52974;SDS011;38839;45.186;5.720;2023-11-18T01:02:52;6.32;;;3.53;;
52974;SDS011;38839;45.186;5.720;2023-11-18T01:05:20;4.95;;;2.97;;
52974;SDS011;38839;45.186;5.720;2023-11-18T01:07:45;5.70;;;3.50;;
52974;SDS011;38839;45.186;5.720;2023-11-18T01:10:11;5.20;;;3.38;;
52974;SDS011;38839;45.186;5.720;2023-11-18T01:12:38;5.00;;;4.00;;
52974;SDS011;38839;45.186;5.720;2023-11-18T01:15:04;4.68;;;2.90;;
52974;SDS011;38839;45.186;5.720;2023-11-18T01:17:30;4.53;;;2.80;;
52974;SDS011;38839;45.186;5.720;2023-11-18T01:19:56;5.30;;;2.72;;
52974;SDS011;38839;45.186;5.720;2023-11-18T01:22:22;4.20;;;3.00;;
52974;SDS011;38839;45.186;5.720;2023-11-18T01:24:47;5.22;;;3.00;;
52974;SDS011;38839;45.186;5.720;2023-11-18T01:27:13;4.40;;;2.70;;
52974;SDS011;38839;45.186;5.720;2023-11-18T01:29:39;3.65;;;2.60;;
52974;SDS011;38839;45.186;5.720;2023-11-18T01:32:05;3.13;;;2.50;;
52974;SDS011;38839;45.186;5.720;2023-11-18T01:34:37;4.18;;;2.80;;
52974;SDS011;38839;45.186;5.720;2023-11-18T01:37:08;5.07;;;3.00;;
52974;SDS011;38839;45.186;5.720;2023-11-18T01:39:34;5.13;;;3.08;;
52974;SDS011;38839;45.186;5.720;2023-11-18T01:42:01;5.38;;;3.72;;
52974;SDS011;38839;45.186;5.720;2023-11-18T01:44:28;4.20;;;2.63;;
52974;SDS011;38839;45.186;5.720;2023-11-18T01:47:02;5.10;;;3.08;;
52974;SDS011;38839;45.186;5.720;2023-11-18T01:49:30;4.40;;;3.03;;
52974;SDS011;38839;45.186;5.720;2023-11-18T01:51:57;4.30;;;2.90;;
52974;SDS011;38839;45.186;5.720;2023-11-18T01:54:24;4.43;;;3.03;;
52974;SDS011;38839;45.186;5.720;2023-11-18T01:56:50;5.13;;;3.35;;
52974;SDS011;38839;45.186;5.720;2023-11-18T01:59:17;6.85;;;3.72;;
52974;SDS011;38839;45.186;5.720;2023-11-18T02:01:52;4.57;;;3.13;;
52974;SDS011;38839;45.186;5.720;2023-11-18T02:04:19;9.68;;;3.88;;
52974;SDS011;38839;45.186;5.720;2023-11-18T02:06:46;3.75;;;2.95;;
52974;SDS011;38839;45.186;5.720;2023-11-18T02:09:17;3.70;;;2.70;;
52974;SDS011;38839;45.186;5.720;2023-11-18T02:11:59;5.55;;;3.05;;
52974;SDS011;38839;45.186;5.720;2023-11-18T02:14:34;5.15;;;2.85;;
52974;SDS011;38839;45.186;5.720;2023-11-18T02:17:04;3.80;;;2.80;;
52974;SDS011;38839;45.186;5.720;2023-11-18T02:19:30;4.30;;;2.90;;
52974;SDS011;38839;45.186;5.720;2023-11-18T02:21:56;4.20;;;3.03;;
52974;SDS011;38839;45.186;5.720;2023-11-18T02:24:26;3.67;;;2.67;;
52974;SDS011;38839;45.186;5.720;2023-11-18T02:26:58;7.93;;;2.83;;
52974;SDS011;38839;45.186;5.720;2023-11-18T02:29:25;4.35;;;2.92;;
52974;SDS011;38839;45.186;5.720;2023-11-18T02:31:55;6.03;;;2.90;;
52974;SDS011;38839;45.186;5.720;2023-11-18T02:34:27;3.65;;;2.60;;
52974;SDS011;38839;45.186;5.720;2023-11-18T02:36:56;4.32;;;2.78;;
52974;SDS011;38839;45.186;5.720;2023-11-18T02:39:36;4.03;;;2.92;;
52974;SDS011;38839;45.186;5.720;2023-11-18T02:42:06;3.90;;;2.67;;
52974;SDS011;38839;45.186;5.720;2023-11-18T02:47:02;4.72;;;3.03;;
52974;SDS011;38839;45.186;5.720;2023-11-18T02:49:30;5.07;;;3.42;;
52974;SDS011;38839;45.186;5.720;2023-11-18T02:51:55;5.13;;;3.35;;
52974;SDS011;38839;45.186;5.720;2023-11-18T02:54:21;5.30;;;3.25;;
52974;SDS011;38839;45.186;5.720;2023-11-18T02:56:47;4.47;;;3.10;;
52974;SDS011;38839;45.186;5.720;2023-11-18T02:59:12;6.35;;;3.60;;
52974;SDS011;38839;45.186;5.720;2023-11-18T03:01:38;9.95;;;3.15;;
52974;SDS011;38839;45.186;5.720;2023-11-18T03:04:06;4.47;;;3.10;;
52974;SDS011;38839;45.186;5.720;2023-11-18T03:06:32;4.90;;;3.42;;
52974;SDS011;38839;45.186;5.720;2023-11-18T03:08:57;4.38;;;3.10;;
52974;SDS011;38839;45.186;5.720;2023-11-18T03:11:23;5.38;;;3.10;;
52974;SDS011;38839;45.186;5.720;2023-11-18T03:13:49;4.65;;;3.30;;
52974;SDS011;38839;45.186;5.720;2023-11-18T03:16:14;5.60;;;3.50;;
52974;SDS011;38839;45.186;5.720;2023-11-18T03:18:40;5.88;;;3.25;;
52974;SDS011;38839;45.186;5.720;2023-11-18T03:21:12;5.57;;;3.50;;
52974;SDS011;38839;45.186;5.720;2023-11-18T03:23:38;5.07;;;3.10;;
52974;SDS011;38839;45.186;5.720;2023-11-18T03:26:05;7.28;;;3.55;;
52974;SDS011;38839;45.186;5.720;2023-11-18T03:28:31;7.55;;;3.67;;
52974;SDS011;38839;45.186;5.720;2023-11-18T03:30:56;7.05;;;3.75;;
52974;SDS011;38839;45.186;5.720;2023-11-18T03:33:22;5.15;;;3.22;;
52974;SDS011;38839;45.186;5.720;2023-11-18T03:35:47;5.00;;;3.50;;
52974;SDS011;38839;45.186;5.720;2023-11-18T03:38:14;7.00;;;3.83;;
52974;SDS011;38839;45.186;5.720;2023-11-18T03:40:42;7.75;;;3.60;;
52974;SDS011;38839;45.186;5.720;2023-11-18T03:43:09;5.38;;;3.78;;
52974;SDS011;38839;45.186;5.720;2023-11-18T03:45:36;5.07;;;3.80;;
52974;SDS011;38839;45.186;5.720;2023-11-18T03:48:03;6.57;;;3.88;;
52974;SDS011;38839;45.186;5.720;2023-11-18T03:50:29;6.10;;;4.00;;
52974;SDS011;38839;45.186;5.720;2023-11-18T03:52:54;4.97;;;3.80;;
52974;SDS011;38839;45.186;5.720;2023-11-18T03:55:20;6.95;;;3.90;;
52974;SDS011;38839;45.186;5.720;2023-11-18T03:57:45;6.50;;;3.50;;
52974;SDS011;38839;45.186;5.720;2023-11-18T04:00:11;6.22;;;3.70;;
52974;SDS011;38839;45.186;5.720;2023-11-18T04:02:37;6.00;;;3.67;;
52974;SDS011;38839;45.186;5.720;2023-11-18T04:05:05;5.50;;;3.83;;
52974;SDS011;38839;45.186;5.720;2023-11-18T04:07:33;5.43;;;3.67;;
52974;SDS011;38839;45.186;5.720;2023-11-18T04:09:58;5.60;;;3.50;;
52974;SDS011;38839;45.186;5.720;2023-11-18T04:12:25;9.07;;;4.28;;
52974;SDS011;38839;45.186;5.720;2023-11-18T04:14:51;6.38;;;3.97;;
52974;SDS011;38839;45.186;5.720;2023-11-18T04:17:17;5.97;;;4.15;;
52974;SDS011;38839;45.186;5.720;2023-11-18T04:19:42;5.63;;;3.72;;
52974;SDS011;38839;45.186;5.720;2023-11-18T04:22:08;5.35;;;3.50;;
52974;SDS011;38839;45.186;5.720;2023-11-18T04:24:34;6.65;;;4.07;;
52974;SDS011;38839;45.186;5.720;2023-11-18T04:27:00;5.32;;;3.63;;
52974;SDS011;38839;45.186;5.720;2023-11-18T04:29:25;5.50;;;3.22;;
52974;SDS011;38839;45.186;5.720;2023-11-18T04:31:51;7.05;;;3.58;;
52974;SDS011;38839;45.186;5.720;2023-11-18T04:34:18;6.72;;;3.72;;
52974;SDS011;38839;45.186;5.720;2023-11-18T04:36:44;5.05;;;3.50;;
52974;SDS011;38839;45.186;5.720;2023-11-18T04:39:09;5.05;;;3.72;;
52974;SDS011;38839;45.186;5.720;2023-11-18T04:41:37;5.75;;;3.60;;
52974;SDS011;38839;45.186;5.720;2023-11-18T04:44:02;5.88;;;3.85;;
52974;SDS011;38839;45.186;5.720;2023-11-18T04:46:28;6.22;;;3.70;;
52974;SDS011;38839;45.186;5.720;2023-11-18T04:48:53;4.47;;;3.30;;
52974;SDS011;38839;45.186;5.720;2023-11-18T04:51:19;6.40;;;3.92;;
52974;SDS011;38839;45.186;5.720;2023-11-18T04:53:47;10.65;;;3.80;;
52974;SDS011;38839;45.186;5.720;2023-11-18T04:56:13;5.70;;;3.55;;
52974;SDS011;38839;45.186;5.720;2023-11-18T04:58:41;5.88;;;3.80;;
52974;SDS011;38839;45.186;5.720;2023-11-18T05:01:07;6.00;;;3.47;;
52974;SDS011;38839;45.186;5.720;2023-11-18T05:03:33;5.63;;;3.92;;
52974;SDS011;38839;45.186;5.720;2023-11-18T05:06:02;6.32;;;3.75;;
52974;SDS011;38839;45.186;5.720;2023-11-18T05:08:29;4.38;;;3.28;;
52974;SDS011;38839;45.186;5.720;2023-11-18T05:10:55;8.00;;;4.47;;
52974;SDS011;38839;45.186;5.720;2023-11-18T05:13:22;6.13;;;4.00;;
52974;SDS011;38839;45.186;5.720;2023-11-18T05:15:51;7.93;;;4.47;;
52974;SDS011;38839;45.186;5.720;2023-11-18T05:18:19;5.55;;;4.03;;
52974;SDS011;38839;45.186;5.720;2023-11-18T05:20:44;5.40;;;4.38;;
52974;SDS011;38839;45.186;5.720;2023-11-18T05:23:10;7.05;;;4.60;;
52974;SDS011;38839;45.186;5.720;2023-11-18T05:25:40;6.03;;;4.53;;
52974;SDS011;38839;45.186;5.720;2023-11-18T05:28:05;8.00;;;4.37;;
52974;SDS011;38839;45.186;5.720;2023-11-18T05:30:34;6.65;;;4.43;;
52974;SDS011;38839;45.186;5.720;2023-11-18T05:33:01;7.13;;;4.53;;
52974;SDS011;38839;45.186;5.720;2023-11-18T05:35:30;5.78;;;4.07;;
52974;SDS011;38839;45.186;5.720;2023-11-18T05:37:56;7.38;;;4.60;;
52974;SDS011;38839;45.186;5.720;2023-11-18T05:40:22;6.80;;;4.20;;
52974;SDS011;38839;45.186;5.720;2023-11-18T05:42:47;6.72;;;4.13;;
52974;SDS011;38839;45.186;5.720;2023-11-18T05:45:16;6.63;;;4.18;;
52974;SDS011;38839;45.186;5.720;2023-11-18T05:47:57;6.15;;;4.43;;
52974;SDS011;38839;45.186;5.720;2023-11-18T05:50:23;5.30;;;4.03;;
52974;SDS011;38839;45.186;5.720;2023-11-18T05:52:52;8.30;;;4.07;;
52974;SDS011;38839;45.186;5.720;2023-11-18T05:55:18;7.60;;;4.38;;
52974;SDS011;38839;45.186;5.720;2023-11-18T05:57:44;8.25;;;3.72;;
52974;SDS011;38839;45.186;5.720;2023-11-18T06:00:11;4.72;;;3.50;;
52974;SDS011;38839;45.186;5.720;2023-11-18T06:02:40;7.80;;;3.40;;
52974;SDS011;38839;45.186;5.720;2023-11-18T06:05:06;6.75;;;3.92;;
52974;SDS011;38839;45.186;5.720;2023-11-18T06:07:32;5.07;;;3.63;;
52974;SDS011;38839;45.186;5.720;2023-11-18T06:09:59;5.50;;;3.88;;
52974;SDS011;38839;45.186;5.720;2023-11-18T06:12:24;4.80;;;3.72;;
52974;SDS011;38839;45.186;5.720;2023-11-18T06:14:51;6.93;;;4.05;;
52974;SDS011;38839;45.186;5.720;2023-11-18T06:17:17;6.28;;;3.83;;
52974;SDS011;38839;45.186;5.720;2023-11-18T06:19:44;4.30;;;3.38;;
52974;SDS011;38839;45.186;5.720;2023-11-18T06:22:09;5.80;;;3.25;;
52974;SDS011;38839;45.186;5.720;2023-11-18T06:24:35;4.32;;;3.28;;
52974;SDS011;38839;45.186;5.720;2023-11-18T06:27:01;4.65;;;3.38;;
52974;SDS011;38839;45.186;5.720;2023-11-18T06:29:26;4.32;;;3.30;;
52974;SDS011;38839;45.186;5.720;2023-11-18T06:31:54;4.50;;;3.53;;
52974;SDS011;38839;45.186;5.720;2023-11-18T06:34:19;4.85;;;2.95;;
52974;SDS011;38839;45.186;5.720;2023-11-18T06:36:45;5.15;;;3.22;;
52974;SDS011;38839;45.186;5.720;2023-11-18T06:39:11;4.22;;;3.08;;
52974;SDS011;38839;45.186;5.720;2023-11-18T06:41:38;4.10;;;3.00;;
52974;SDS011;38839;45.186;5.720;2023-11-18T06:44:13;6.97;;;3.25;;
52974;SDS011;38839;45.186;5.720;2023-11-18T06:49:09;6.05;;;3.33;;
52974;SDS011;38839;45.186;5.720;2023-11-18T06:51:40;5.00;;;3.10;;
52974;SDS011;38839;45.186;5.720;2023-11-18T06:54:06;6.10;;;3.28;;
52974;SDS011;38839;45.186;5.720;2023-11-18T06:56:38;4.95;;;3.28;;
52974;SDS011;38839;45.186;5.720;2023-11-18T06:59:11;4.82;;;3.13;;
52974;SDS011;38839;45.186;5.720;2023-11-18T07:01:38;5.95;;;2.95;;
52974;SDS011;38839;45.186;5.720;2023-11-18T07:04:05;5.65;;;3.35;;
52974;SDS011;38839;45.186;5.720;2023-11-18T07:06:33;5.28;;;3.47;;
52974;SDS011;38839;45.186;5.720;2023-11-18T07:09:03;5.78;;;3.20;;
52974;SDS011;38839;45.186;5.720;2023-11-18T07:11:41;5.93;;;3.45;;
52974;SDS011;38839;45.186;5.720;2023-11-18T07:14:07;6.25;;;3.42;;
52974;SDS011;38839;45.186;5.720;2023-11-18T07:16:34;7.65;;;3.20;;
52974;SDS011;38839;45.186;5.720;2023-11-18T07:19:00;3.95;;;3.05;;
52974;SDS011;38839;45.186;5.720;2023-11-18T07:21:25;3.88;;;3.00;;
52974;SDS011;38839;45.186;5.720;2023-11-18T07:23:50;5.55;;;3.40;;
52974;SDS011;38839;45.186;5.720;2023-11-18T07:26:16;4.50;;;3.17;;
52974;SDS011;38839;45.186;5.720;2023-11-18T07:28:41;3.92;;;3.25;;
52974;SDS011;38839;45.186;5.720;2023-11-18T07:31:08;4.10;;;2.95;;
52974;SDS011;38839;45.186;5.720;2023-11-18T07:33:34;3.10;;;2.80;;
52974;SDS011;38839;45.186;5.720;2023-11-18T07:35:59;3.67;;;2.83;;
52974;SDS011;38839;45.186;5.720;2023-11-18T07:38:25;4.10;;;2.90;;
52974;SDS011;38839;45.186;5.720;2023-11-18T07:40:52;4.25;;;2.78;;
52974;SDS011;38839;45.186;5.720;2023-11-18T07:43:21;3.73;;;2.67;;
52974;SDS011;38839;45.186;5.720;2023-11-18T07:45:47;4.57;;;2.80;;
52974;SDS011;38839;45.186;5.720;2023-11-18T07:48:18;3.38;;;2.70;;
52974;SDS011;38839;45.186;5.720;2023-11-18T07:50:45;3.85;;;2.65;;
52974;SDS011;38839;45.186;5.720;2023-11-18T07:53:12;4.57;;;3.13;;
52974;SDS011;38839;45.186;5.720;2023-11-18T07:55:38;6.22;;;3.08;;
52974;SDS011;38839;45.186;5.720;2023-11-18T07:58:04;3.95;;;2.70;;
52974;SDS011;38839;45.186;5.720;2023-11-18T08:00:39;5.00;;;2.55;;
52974;SDS011;38839;45.186;5.720;2023-11-18T08:03:08;3.67;;;2.45;;
52974;SDS011;38839;45.186;5.720;2023-11-18T08:05:37;3.33;;;2.50;;
52974;SDS011;38839;45.186;5.720;2023-11-18T08:08:08;2.90;;;2.25;;
52974;SDS011;38839;45.186;5.720;2023-11-18T08:10:35;2.97;;;2.40;;
52974;SDS011;38839;45.186;5.720;2023-11-18T08:13:04;3.85;;;2.30;;
52974;SDS011;38839;45.186;5.720;2023-11-18T08:15:33;5.55;;;3.80;;
52974;SDS011;38839;45.186;5.720;2023-11-18T08:17:59;4.45;;;2.70;;
52974;SDS011;38839;45.186;5.720;2023-11-18T08:20:25;4.13;;;2.67;;
52974;SDS011;38839;45.186;5.720;2023-11-18T08:22:51;5.55;;;2.45;;
52974;SDS011;38839;45.186;5.720;2023-11-18T08:25:16;4.15;;;2.58;;
52974;SDS011;38839;45.186;5.720;2023-11-18T08:27:43;4.25;;;2.70;;
52974;SDS011;38839;45.186;5.720;2023-11-18T08:30:11;4.22;;;2.78;;
52974;SDS011;38839;45.186;5.720;2023-11-18T08:32:38;4.60;;;2.80;;
52974;SDS011;38839;45.186;5.720;2023-11-18T08:35:05;3.63;;;2.63;;
52974;SDS011;38839;45.186;5.720;2023-11-18T08:37:34;4.57;;;3.10;;
52974;SDS011;38839;45.186;5.720;2023-11-18T08:40:02;5.18;;;2.40;;
52974;SDS011;38839;45.186;5.720;2023-11-18T08:42:29;4.43;;;2.60;;
52974;SDS011;38839;45.186;5.720;2023-11-18T08:44:57;4.15;;;2.45;;
52974;SDS011;38839;45.186;5.720;2023-11-18T08:47:24;4.18;;;2.40;;
52974;SDS011;38839;45.186;5.720;2023-11-18T08:49:49;7.75;;;2.83;;
52974;SDS011;38839;45.186;5.720;2023-11-18T08:52:15;4.53;;;2.88;;
52974;SDS011;38839;45.186;5.720;2023-11-18T08:54:42;4.65;;;2.72;;
52974;SDS011;38839;45.186;5.720;2023-11-18T08:57:28;5.13;;;2.90;;
52974;SDS011;38839;45.186;5.720;2023-11-18T09:00:13;5.68;;;3.17;;
52974;SDS011;38839;45.186;5.720;2023-11-18T09:03:01;4.38;;;2.50;;
52974;SDS011;38839;45.186;5.720;2023-11-18T09:05:30;3.88;;;2.60;;
52974;SDS011;38839;45.186;5.720;2023-11-18T09:07:57;3.30;;;2.20;;
52974;SDS011;38839;45.186;5.720;2023-11-18T09:10:25;3.25;;;2.20;;
52974;SDS011;38839;45.186;5.720;2023-11-18T09:12:51;4.30;;;2.80;;
52974;SDS011;38839;45.186;5.720;2023-11-18T09:15:18;3.00;;;2.50;;
52974;SDS011;38839;45.186;5.720;2023-11-18T09:17:47;4.53;;;2.60;;
52974;SDS011;38839;45.186;5.720;2023-11-18T09:20:13;3.03;;;2.20;;
52974;SDS011;38839;45.186;5.720;2023-11-18T09:22:43;4.90;;;2.67;;
52974;SDS011;38839;45.186;5.720;2023-11-18T09:25:09;4.50;;;2.65;;
52974;SDS011;38839;45.186;5.720;2023-11-18T09:27:35;6.35;;;2.80;;
52974;SDS011;38839;45.186;5.720;2023-11-18T09:30:01;4.40;;;2.50;;
52974;SDS011;38839;45.186;5.720;2023-11-18T09:32:30;3.17;;;2.20;;
52974;SDS011;38839;45.186;5.720;2023-11-18T09:34:59;3.90;;;2.67;;
52974;SDS011;38839;45.186;5.720;2023-11-18T09:37:24;2.78;;;2.20;;
52974;SDS011;38839;45.186;5.720;2023-11-18T09:39:50;2.83;;;2.35;;
52974;SDS011;38839;45.186;5.720;2023-11-18T09:42:17;4.22;;;2.80;;
52974;SDS011;38839;45.186;5.720;2023-11-18T09:44:44;3.95;;;2.60;;
52974;SDS011;38839;45.186;5.720;2023-11-18T09:47:13;4.15;;;2.22;;
52974;SDS011;38839;45.186;5.720;2023-11-18T09:49:44;8.30;;;2.30;;
52974;SDS011;38839;45.186;5.720;2023-11-18T09:52:12;4.85;;;2.05;;
52974;SDS011;38839;45.186;5.720;2023-11-18T09:54:45;3.10;;;2.13;;
52974;SDS011;38839;45.186;5.720;2023-11-18T09:57:43;4.80;;;2.08;;
52974;SDS011;38839;45.186;5.720;2023-11-18T10:00:09;4.30;;;2.22;;
52974;SDS011;38839;45.186;5.720;2023-11-18T10:02:49;3.47;;;2.10;;
52974;SDS011;38839;45.186;5.720;2023-11-18T10:05:19;3.10;;;1.90;;
52974;SDS011;38839;45.186;5.720;2023-11-18T10:07:51;3.13;;;2.10;;
52974;SDS011;38839;45.186;5.720;2023-11-18T10:10:17;2.55;;;1.60;;
52974;SDS011;38839;45.186;5.720;2023-11-18T10:12:46;2.00;;;1.40;;
52974;SDS011;38839;45.186;5.720;2023-11-18T10:15:17;2.20;;;1.70;;
52974;SDS011;38839;45.186;5.720;2023-11-18T10:17:44;2.03;;;1.15;;
52974;SDS011;38839;45.186;5.720;2023-11-18T10:20:22;3.05;;;1.42;;
52974;SDS011;38839;45.186;5.720;2023-11-18T10:23:09;1.98;;;1.40;;
52974;SDS011;38839;45.186;5.720;2023-11-18T10:25:36;3.40;;;1.60;;
52974;SDS011;38839;45.186;5.720;2023-11-18T10:28:10;2.97;;;1.20;;
52974;SDS011;38839;45.186;5.720;2023-11-18T10:30:57;3.65;;;1.40;;
52974;SDS011;38839;45.186;5.720;2023-11-18T10:33:37;4.15;;;1.60;;
52974;SDS011;38839;45.186;5.720;2023-11-18T10:36:06;1.88;;;1.52;;
52974;SDS011;38839;45.186;5.720;2023-11-18T10:38:47;3.10;;;1.60;;
52974;SDS011;38839;45.186;5.720;2023-11-18T10:41:20;5.30;;;1.48;;
52974;SDS011;38839;45.186;5.720;2023-11-18T10:43:46;4.15;;;1.58;;
52974;SDS011;38839;45.186;5.720;2023-11-18T10:46:13;3.67;;;1.65;;
52974;SDS011;38839;45.186;5.720;2023-11-18T10:48:40;6.78;;;2.20;;
52974;SDS011;38839;45.186;5.720;2023-11-18T10:51:10;2.63;;;1.38;;
52974;SDS011;38839;45.186;5.720;2023-11-18T10:53:37;2.28;;;1.25;;
52974;SDS011;38839;45.186;5.720;2023-11-18T10:56:15;2.42;;;1.50;;
52974;SDS011;38839;45.186;5.720;2023-11-18T10:58:44;3.28;;;1.35;;
52974;SDS011;38839;45.186;5.720;2023-11-18T11:01:11;4.20;;;1.63;;
52974;SDS011;38839;45.186;5.720;2023-11-18T11:03:53;2.08;;;1.35;;
52974;SDS011;38839;45.186;5.720;2023-11-18T11:06:23;2.03;;;1.38;;
52974;SDS011;38839;45.186;5.720;2023-11-18T11:08:55;3.67;;;1.50;;
52974;SDS011;38839;45.186;5.720;2023-11-18T11:11:23;2.50;;;1.75;;
52974;SDS011;38839;45.186;5.720;2023-11-18T11:13:58;2.65;;;1.70;;
52974;SDS011;38839;45.186;5.720;2023-11-18T11:16:33;4.57;;;2.10;;
52974;SDS011;38839;45.186;5.720;2023-11-18T11:19:03;3.03;;;1.98;;
52974;SDS011;38839;45.186;5.720;2023-11-18T11:21:37;1.80;;;1.33;;
52974;SDS011;38839;45.186;5.720;2023-11-18T11:24:17;2.30;;;1.20;;
52974;SDS011;38839;45.186;5.720;2023-11-18T11:27:09;1.42;;;1.08;;
52974;SDS011;38839;45.186;5.720;2023-11-18T11:29:49;1.80;;;1.10;;
52974;SDS011;38839;45.186;5.720;2023-11-18T11:34:56;1.40;;;1.05;;
52974;SDS011;38839;45.186;5.720;2023-11-18T11:37:30;1.83;;;1.00;;
52974;SDS011;38839;45.186;5.720;2023-11-18T11:39:59;1.77;;;0.90;;
52974;SDS011;38839;45.186;5.720;2023-11-18T11:42:29;2.45;;;1.33;;
52974;SDS011;38839;45.186;5.720;2023-11-18T11:44:56;1.98;;;1.10;;
52974;SDS011;38839;45.186;5.720;2023-11-18T11:47:23;2.20;;;0.95;;
52974;SDS011;38839;45.186;5.720;2023-11-18T11:50:00;5.00;;;1.00;;
52974;SDS011;38839;45.186;5.720;2023-11-18T11:52:58;4.35;;;1.55;;
52974;SDS011;38839;45.186;5.720;2023-11-18T11:55:51;3.40;;;2.17;;
52974;SDS011;38839;45.186;5.720;2023-11-18T11:58:31;3.95;;;2.03;;
52974;SDS011;38839;45.186;5.720;2023-11-18T12:01:02;3.60;;;2.08;;
52974;SDS011;38839;45.186;5.720;2023-11-18T12:03:43;3.33;;;2.22;;
52974;SDS011;38839;45.186;5.720;2023-11-18T12:06:12;2.58;;;1.60;;
52974;SDS011;38839;45.186;5.720;2023-11-18T12:08:44;4.50;;;2.28;;
52974;SDS011;38839;45.186;5.720;2023-11-18T12:11:11;4.75;;;1.60;;
52974;SDS011;38839;45.186;5.720;2023-11-18T12:13:37;3.58;;;1.50;;
52974;SDS011;38839;45.186;5.720;2023-11-18T12:16:05;4.50;;;1.98;;
52974;SDS011;38839;45.186;5.720;2023-11-18T12:18:34;4.72;;;2.10;;
52974;SDS011;38839;45.186;5.720;2023-11-18T12:21:01;3.13;;;1.80;;
52974;SDS011;38839;45.186;5.720;2023-11-18T12:23:27;3.05;;;1.65;;
52974;SDS011;38839;45.186;5.720;2023-11-18T12:25:56;3.45;;;1.58;;
52974;SDS011;38839;45.186;5.720;2023-11-18T12:28:28;5.60;;;1.60;;
52974;SDS011;38839;45.186;5.720;2023-11-18T12:31:02;3.63;;;1.92;;
52974;SDS011;38839;45.186;5.720;2023-11-18T12:42:05;3.25;;;1.48;;
52974;SDS011;38839;45.186;5.720;2023-11-18T12:44:35;2.83;;;1.42;;
52974;SDS011;38839;45.186;5.720;2023-11-18T12:47:05;4.30;;;2.20;;
52974;SDS011;38839;45.186;5.720;2023-11-18T12:49:43;3.75;;;2.35;;
52974;SDS011;38839;45.186;5.720;2023-11-18T12:52:15;4.00;;;2.35;;
52974;SDS011;38839;45.186;5.720;2023-11-18T12:54:44;3.85;;;2.60;;
52974;SDS011;38839;45.186;5.720;2023-11-18T12:57:15;4.65;;;2.38;;
52974;SDS011;38839;45.186;5.720;2023-11-18T13:00:03;4.28;;;2.17;;
52974;SDS011;38839;45.186;5.720;2023-11-18T13:02:36;3.95;;;2.25;;
52974;SDS011;38839;45.186;5.720;2023-11-18T13:05:05;5.85;;;2.38;;
52974;SDS011;38839;45.186;5.720;2023-11-18T13:07:30;3.28;;;2.33;;
52974;SDS011;38839;45.186;5.720;2023-11-18T13:09:56;6.45;;;2.65;;
52974;SDS011;38839;45.186;5.720;2023-11-18T13:12:21;4.45;;;2.42;;
52974;SDS011;38839;45.186;5.720;2023-11-18T13:14:49;4.00;;;2.45;;
52974;SDS011;38839;45.186;5.720;2023-11-18T13:17:15;3.80;;;2.30;;
52974;SDS011;38839;45.186;5.720;2023-11-18T13:19:42;3.03;;;2.00;;
52974;SDS011;38839;45.186;5.720;2023-11-18T13:22:09;3.47;;;2.15;;
52974;SDS011;38839;45.186;5.720;2023-11-18T13:24:42;3.47;;;1.77;;
52974;SDS011;38839;45.186;5.720;2023-11-18T13:27:18;4.43;;;2.20;;
52974;SDS011;38839;45.186;5.720;2023-11-18T13:29:45;3.72;;;1.90;;
52974;SDS011;38839;45.186;5.720;2023-11-18T13:32:16;3.00;;;2.00;;
52974;SDS011;38839;45.186;5.720;2023-11-18T13:34:43;4.00;;;1.55;;
52974;SDS011;38839;45.186;5.720;2023-11-18T13:37:09;2.42;;;1.50;;
52974;SDS011;38839;45.186;5.720;2023-11-18T13:39:56;2.33;;;1.48;;
52974;SDS011;38839;45.186;5.720;2023-11-18T13:42:25;3.22;;;1.83;;
52974;SDS011;38839;45.186;5.720;2023-11-18T13:44:59;3.47;;;1.90;;
52974;SDS011;38839;45.186;5.720;2023-11-18T13:47:34;4.20;;;1.75;;
52974;SDS011;38839;45.186;5.720;2023-11-18T13:49:59;3.28;;;1.85;;
52974;SDS011;38839;45.186;5.720;2023-11-18T13:52:25;2.15;;;1.70;;
52974;SDS011;38839;45.186;5.720;2023-11-18T13:54:51;2.22;;;1.38;;
52974;SDS011;38839;45.186;5.720;2023-11-18T13:57:22;3.38;;;1.70;;
52974;SDS011;38839;45.186;5.720;2023-11-18T13:59:49;3.88;;;1.48;;
52974;SDS011;38839;45.186;5.720;2023-11-18T14:02:15;2.05;;;1.23;;
52974;SDS011;38839;45.186;5.720;2023-11-18T14:04:41;2.33;;;1.20;;
52974;SDS011;38839;45.186;5.720;2023-11-18T14:07:09;2.08;;;1.20;;
52974;SDS011;38839;45.186;5.720;2023-11-18T14:09:42;1.83;;;1.10;;
52974;SDS011;38839;45.186;5.720;2023-11-18T14:12:10;3.53;;;1.30;;
52974;SDS011;38839;45.186;5.720;2023-11-18T14:14:37;1.90;;;1.17;;
52974;SDS011;38839;45.186;5.720;2023-11-18T14:17:03;1.60;;;1.17;;
52974;SDS011;38839;45.186;5.720;2023-11-18T14:19:31;5.75;;;1.20;;
52974;SDS011;38839;45.186;5.720;2023-11-18T14:21:56;2.70;;;1.38;;
52974;SDS011;38839;45.186;5.720;2023-11-18T14:24:22;2.17;;;1.20;;
52974;SDS011;38839;45.186;5.720;2023-11-18T14:26:48;3.45;;;1.00;;
52974;SDS011;38839;45.186;5.720;2023-11-18T14:29:13;2.15;;;1.30;;
52974;SDS011;38839;45.186;5.720;2023-11-18T14:31:39;2.40;;;1.10;;
52974;SDS011;38839;45.186;5.720;2023-11-18T14:34:04;1.08;;;0.90;;
52974;SDS011;38839;45.186;5.720;2023-11-18T14:36:30;2.22;;;1.08;;
52974;SDS011;38839;45.186;5.720;2023-11-18T14:38:55;2.67;;;1.00;;
52974;SDS011;38839;45.186;5.720;2023-11-18T14:41:23;1.85;;;1.00;;
52974;SDS011;38839;45.186;5.720;2023-11-18T14:43:51;1.13;;;0.75;;
52974;SDS011;38839;45.186;5.720;2023-11-18T14:46:17;2.33;;;0.77;;
52974;SDS011;38839;45.186;5.720;2023-11-18T14:48:46;3.10;;;1.08;;
52974;SDS011;38839;45.186;5.720;2023-11-18T14:51:11;1.92;;;1.05;;
52974;SDS011;38839;45.186;5.720;2023-11-18T14:53:37;1.08;;;0.70;;
52974;SDS011;38839;45.186;5.720;2023-11-18T14:56:03;2.72;;;0.88;;
52974;SDS011;38839;45.186;5.720;2023-11-18T14:58:30;1.05;;;0.90;;
52974;SDS011;38839;45.186;5.720;2023-11-18T15:00:57;1.80;;;1.00;;
52974;SDS011;38839;45.186;5.720;2023-11-18T15:03:24;1.65;;;1.20;;
52974;SDS011;38839;45.186;5.720;2023-11-18T15:05:50;1.88;;;1.30;;
52974;SDS011;38839;45.186;5.720;2023-11-18T15:08:15;6.07;;;1.27;;
52974;SDS011;38839;45.186;5.720;2023-11-18T15:10:41;3.35;;;1.35;;
52974;SDS011;38839;45.186;5.720;2023-11-18T15:13:07;1.63;;;1.30;;